sensor_id;sensor_type;location;lat;lon;timestamp;P1;durP1;ratioP1;P2;durP2;ratioP2
22841;SDS011;11587;47.064;15.444;2023-04-01T00:00:17;0.20;;;0.20;;
22841;SDS011;11587;47.064;15.444;2023-04-01T00:02:43;0.20;;;0.20;;
22841;SDS011;11587;47.064;15.444;2023-04-01T00:05:09;0.20;;;0.20;;
22841;SDS011;11587;47.064;15.444;2023-04-01T00:07:39;0.20;;;0.20;;
22841;SDS011;11587;47.064;15.444;2023-04-01T00:10:06;0.20;;;0.20;;
22841;SDS011;11587;47.064;15.444;2023-04-01T00:12:32;0.20;;;0.20;;
22841;SDS011;11587;47.064;15.444;2023-04-01T00:14:58;0.20;;;0.20;;
22841;SDS011;11587;47.064;15.444;2023-04-01T00:17:25;0.20;;;0.20;;
22841;SDS011;11587;47.064;15.444;2023-04-01T00:19:51;0.20;;;0.20;;
22841;SDS011;11587;47.064;15.444;2023-04-01T00:22:17;0.20;;;0.20;;
22841;SDS011;11587;47.064;15.444;2023-04-01T00:24:43;0.20;;;0.20;;
22841;SDS011;11587;47.064;15.444;2023-04-01T00:27:10;0.20;;;0.20;;
22841;SDS011;11587;47.064;15.444;2023-04-01T00:29:36;0.20;;;0.20;;
22841;SDS011;11587;47.064;15.444;2023-04-01T00:32:02;0.20;;;0.20;;
22841;SDS011;11587;47.064;15.444;2023-04-01T00:34:28;0.20;;;0.20;;
22841;SDS011;11587;47.064;15.444;2023-04-01T00:36:54;0.20;;;0.20;;
22841;SDS011;11587;47.064;15.444;2023-04-01T00:39:20;0.20;;;0.20;;
22841;SDS011;11587;47.064;15.444;2023-04-01T00:41:47;0.20;;;0.20;;
22841;SDS011;11587;47.064;15.444;2023-04-01T00:44:23;0.20;;;0.20;;
22841;SDS011;11587;47.064;15.444;2023-04-01T00:46:50;0.20;;;0.20;;
22841;SDS011;11587;47.064;15.444;2023-04-01T00:49:17;0.20;;;0.20;;
22841;SDS011;11587;47.064;15.444;2023-04-01T00:51:44;0.20;;;0.20;;
22841;SDS011;11587;47.064;15.444;2023-04-01T00:54:13;0.20;;;0.20;;
22841;SDS011;11587;47.064;15.444;2023-04-01T00:56:41;0.20;;;0.20;;
22841;SDS011;11587;47.064;15.444;2023-04-01T00:59:14;0.20;;;0.20;;
22841;SDS011;11587;47.064;15.444;2023-04-01T01:01:41;0.20;;;0.20;;
22841;SDS011;11587;47.064;15.444;2023-04-01T01:04:19;0.20;;;0.20;;
22841;SDS011;11587;47.064;15.444;2023-04-01T01:06:47;0.20;;;0.20;;
22841;SDS011;11587;47.064;15.444;2023-04-01T01:09:25;0.20;;;0.20;;
22841;SDS011;11587;47.064;15.444;2023-04-01T01:17:12;0.20;;;0.20;;
22841;SDS011;11587;47.064;15.444;2023-04-01T01:19:50;0.20;;;0.20;;
22841;SDS011;11587;47.064;15.444;2023-04-01T01:25:11;0.20;;;0.20;;
22841;SDS011;11587;47.064;15.444;2023-04-01T01:27:40;0.20;;;0.20;;
22841;SDS011;11587;47.064;15.444;2023-04-01T01:33:01;0.20;;;0.20;;
22841;SDS011;11587;47.064;15.444;2023-04-01T01:35:38;0.20;;;0.20;;
22841;SDS011;11587;47.064;15.444;2023-04-01T01:38:08;0.20;;;0.20;;
22841;SDS011;11587;47.064;15.444;2023-04-01T01:40:35;0.20;;;0.20;;
22841;SDS011;11587;47.064;15.444;2023-04-01T01:43:04;0.20;;;0.20;;
22841;SDS011;11587;47.064;15.444;2023-04-01T01:45:31;0.20;;;0.20;;
22841;SDS011;11587;47.064;15.444;2023-04-01T01:47:58;0.20;;;0.20;;
22841;SDS011;11587;47.064;15.444;2023-04-01T01:50:25;0.20;;;0.20;;
22841;SDS011;11587;47.064;15.444;2023-04-01T01:52:59;0.20;;;0.20;;
22841;SDS011;11587;47.064;15.444;2023-04-01T01:55:35;0.20;;;0.20;;
22841;SDS011;11587;47.064;15.444;2023-04-01T01:58:06;0.20;;;0.20;;
22841;SDS011;11587;47.064;15.444;2023-04-01T02:00:36;0.20;;;0.20;;
22841;SDS011;11587;47.064;15.444;2023-04-01T02:03:02;0.20;;;0.20;;
22841;SDS011;11587;47.064;15.444;2023-04-01T02:05:29;0.20;;;0.20;;
22841;SDS011;11587;47.064;15.444;2023-04-01T02:08:01;0.20;;;0.20;;
22841;SDS011;11587;47.064;15.444;2023-04-01T02:10:28;0.20;;;0.20;;
22841;SDS011;11587;47.064;15.444;2023-04-01T02:12:56;0.20;;;0.20;;
22841;SDS011;11587;47.064;15.444;2023-04-01T02:15:23;0.20;;;0.20;;
22841;SDS011;11587;47.064;15.444;2023-04-01T02:17:50;0.20;;;0.20;;
22841;SDS011;11587;47.064;15.444;2023-04-01T02:22:48;0.20;;;0.20;;
22841;SDS011;11587;47.064;15.444;2023-04-01T02:25:17;0.40;;;0.40;;
22841;SDS011;11587;47.064;15.444;2023-04-01T02:27:44;0.40;;;0.40;;
22841;SDS011;11587;47.064;15.444;2023-04-01T02:30:11;0.40;;;0.40;;
22841;SDS011;11587;47.064;15.444;2023-04-01T02:32:38;0.40;;;0.40;;
22841;SDS011;11587;47.064;15.444;2023-04-01T02:35:05;0.40;;;0.40;;
22841;SDS011;11587;47.064;15.444;2023-04-01T02:37:33;0.40;;;0.40;;
22841;SDS011;11587;47.064;15.444;2023-04-01T02:40:00;0.40;;;0.40;;
22841;SDS011;11587;47.064;15.444;2023-04-01T02:42:26;0.40;;;0.40;;
22841;SDS011;11587;47.064;15.444;2023-04-01T02:44:52;0.40;;;0.40;;
22841;SDS011;11587;47.064;15.444;2023-04-01T02:47:18;0.40;;;0.40;;
22841;SDS011;11587;47.064;15.444;2023-04-01T02:49:44;0.40;;;0.40;;
22841;SDS011;11587;47.064;15.444;2023-04-01T02:52:10;0.40;;;0.40;;
22841;SDS011;11587;47.064;15.444;2023-04-01T02:54:36;0.40;;;0.40;;
22841;SDS011;11587;47.064;15.444;2023-04-01T02:57:02;0.40;;;0.40;;
22841;SDS011;11587;47.064;15.444;2023-04-01T02:59:28;0.40;;;0.40;;
22841;SDS011;11587;47.064;15.444;2023-04-01T03:01:54;0.40;;;0.40;;
22841;SDS011;11587;47.064;15.444;2023-04-01T03:04:20;0.40;;;0.40;;
22841;SDS011;11587;47.064;15.444;2023-04-01T03:06:46;0.40;;;0.40;;
22841;SDS011;11587;47.064;15.444;2023-04-01T03:09:12;0.40;;;0.40;;
22841;SDS011;11587;47.064;15.444;2023-04-01T03:11:39;0.40;;;0.40;;
22841;SDS011;11587;47.064;15.444;2023-04-01T03:14:05;0.40;;;0.40;;
22841;SDS011;11587;47.064;15.444;2023-04-01T03:16:32;0.40;;;0.40;;
22841;SDS011;11587;47.064;15.444;2023-04-01T03:18:58;0.20;;;0.20;;
22841;SDS011;11587;47.064;15.444;2023-04-01T03:21:26;0.20;;;0.20;;
22841;SDS011;11587;47.064;15.444;2023-04-01T03:23:53;0.20;;;0.20;;
22841;SDS011;11587;47.064;15.444;2023-04-01T03:26:19;0.20;;;0.20;;
22841;SDS011;11587;47.064;15.444;2023-04-01T03:28:46;0.20;;;0.20;;
22841;SDS011;11587;47.064;15.444;2023-04-01T03:31:12;0.20;;;0.20;;
22841;SDS011;11587;47.064;15.444;2023-04-01T03:33:39;0.20;;;0.20;;
22841;SDS011;11587;47.064;15.444;2023-04-01T03:36:05;0.20;;;0.20;;
22841;SDS011;11587;47.064;15.444;2023-04-01T03:38:33;0.20;;;0.20;;
22841;SDS011;11587;47.064;15.444;2023-04-01T03:41:00;0.20;;;0.20;;
22841;SDS011;11587;47.064;15.444;2023-04-01T03:43:27;0.20;;;0.20;;
22841;SDS011;11587;47.064;15.444;2023-04-01T03:45:53;0.20;;;0.20;;
22841;SDS011;11587;47.064;15.444;2023-04-01T03:48:19;0.20;;;0.20;;
22841;SDS011;11587;47.064;15.444;2023-04-01T03:50:46;0.20;;;0.20;;
22841;SDS011;11587;47.064;15.444;2023-04-01T03:53:12;0.20;;;0.20;;
22841;SDS011;11587;47.064;15.444;2023-04-01T03:55:39;0.20;;;0.20;;
22841;SDS011;11587;47.064;15.444;2023-04-01T03:58:06;0.20;;;0.20;;
22841;SDS011;11587;47.064;15.444;2023-04-01T04:00:32;0.20;;;0.20;;
22841;SDS011;11587;47.064;15.444;2023-04-01T04:02:58;0.20;;;0.20;;
22841;SDS011;11587;47.064;15.444;2023-04-01T04:05:25;0.20;;;0.20;;
22841;SDS011;11587;47.064;15.444;2023-04-01T04:07:52;0.20;;;0.20;;
22841;SDS011;11587;47.064;15.444;2023-04-01T04:10:18;0.20;;;0.20;;
22841;SDS011;11587;47.064;15.444;2023-04-01T04:12:44;0.20;;;0.20;;
22841;SDS011;11587;47.064;15.444;2023-04-01T04:15:10;0.45;;;0.45;;
22841;SDS011;11587;47.064;15.444;2023-04-01T04:17:36;0.40;;;0.40;;
22841;SDS011;11587;47.064;15.444;2023-04-01T04:20:02;0.40;;;0.40;;
22841;SDS011;11587;47.064;15.444;2023-04-01T04:22:28;0.38;;;0.38;;
22841;SDS011;11587;47.064;15.444;2023-04-01T04:24:54;0.40;;;0.40;;
22841;SDS011;11587;47.064;15.444;2023-04-01T04:27:21;0.40;;;0.40;;
22841;SDS011;11587;47.064;15.444;2023-04-01T04:29:47;0.40;;;0.40;;
22841;SDS011;11587;47.064;15.444;2023-04-01T04:32:13;0.40;;;0.40;;
22841;SDS011;11587;47.064;15.444;2023-04-01T04:34:39;0.40;;;0.40;;
22841;SDS011;11587;47.064;15.444;2023-04-01T04:37:05;0.40;;;0.40;;
22841;SDS011;11587;47.064;15.444;2023-04-01T04:39:31;0.40;;;0.40;;
22841;SDS011;11587;47.064;15.444;2023-04-01T04:41:57;0.40;;;0.40;;
22841;SDS011;11587;47.064;15.444;2023-04-01T04:44:23;0.40;;;0.40;;
22841;SDS011;11587;47.064;15.444;2023-04-01T04:46:49;0.40;;;0.40;;
22841;SDS011;11587;47.064;15.444;2023-04-01T04:49:15;0.40;;;0.40;;
22841;SDS011;11587;47.064;15.444;2023-04-01T04:51:41;0.40;;;0.40;;
22841;SDS011;11587;47.064;15.444;2023-04-01T04:54:07;0.40;;;0.40;;
22841;SDS011;11587;47.064;15.444;2023-04-01T04:56:33;0.20;;;0.20;;
22841;SDS011;11587;47.064;15.444;2023-04-01T04:59:00;0.20;;;0.20;;
22841;SDS011;11587;47.064;15.444;2023-04-01T05:01:27;0.20;;;0.20;;
22841;SDS011;11587;47.064;15.444;2023-04-01T05:03:53;0.20;;;0.20;;
22841;SDS011;11587;47.064;15.444;2023-04-01T05:06:19;0.20;;;0.20;;
22841;SDS011;11587;47.064;15.444;2023-04-01T05:08:45;0.20;;;0.20;;
22841;SDS011;11587;47.064;15.444;2023-04-01T05:11:12;0.20;;;0.20;;
22841;SDS011;11587;47.064;15.444;2023-04-01T05:13:39;0.20;;;0.20;;
22841;SDS011;11587;47.064;15.444;2023-04-01T05:16:14;0.20;;;0.20;;
22841;SDS011;11587;47.064;15.444;2023-04-01T05:18:41;0.20;;;0.20;;
22841;SDS011;11587;47.064;15.444;2023-04-01T05:21:08;0.20;;;0.20;;
22841;SDS011;11587;47.064;15.444;2023-04-01T05:23:35;0.20;;;0.20;;
22841;SDS011;11587;47.064;15.444;2023-04-01T05:26:07;0.20;;;0.20;;
22841;SDS011;11587;47.064;15.444;2023-04-01T05:28:34;0.20;;;0.20;;
22841;SDS011;11587;47.064;15.444;2023-04-01T05:31:00;0.20;;;0.20;;
22841;SDS011;11587;47.064;15.444;2023-04-01T05:33:26;0.20;;;0.20;;
22841;SDS011;11587;47.064;15.444;2023-04-01T05:35:53;0.20;;;0.20;;
22841;SDS011;11587;47.064;15.444;2023-04-01T05:38:19;0.20;;;0.20;;
22841;SDS011;11587;47.064;15.444;2023-04-01T05:40:45;0.20;;;0.20;;
22841;SDS011;11587;47.064;15.444;2023-04-01T05:43:12;0.20;;;0.20;;
22841;SDS011;11587;47.064;15.444;2023-04-01T05:45:38;0.20;;;0.20;;
22841;SDS011;11587;47.064;15.444;2023-04-01T05:48:04;0.20;;;0.20;;
22841;SDS011;11587;47.064;15.444;2023-04-01T05:50:30;0.20;;;0.20;;
22841;SDS011;11587;47.064;15.444;2023-04-01T05:52:56;0.20;;;0.20;;
22841;SDS011;11587;47.064;15.444;2023-04-01T05:55:22;0.20;;;0.20;;
22841;SDS011;11587;47.064;15.444;2023-04-01T05:57:48;0.20;;;0.20;;
22841;SDS011;11587;47.064;15.444;2023-04-01T06:00:15;0.20;;;0.20;;
22841;SDS011;11587;47.064;15.444;2023-04-01T06:02:42;0.20;;;0.20;;
22841;SDS011;11587;47.064;15.444;2023-04-01T06:05:14;0.20;;;0.20;;
22841;SDS011;11587;47.064;15.444;2023-04-01T06:07:40;0.20;;;0.20;;
22841;SDS011;11587;47.064;15.444;2023-04-01T06:10:12;0.20;;;0.20;;
22841;SDS011;11587;47.064;15.444;2023-04-01T06:25:29;0.20;;;0.20;;
22841;SDS011;11587;47.064;15.444;2023-04-01T06:34:11;0.20;;;0.20;;
22841;SDS011;11587;47.064;15.444;2023-04-01T06:52:19;0.28;;;0.28;;
22841;SDS011;11587;47.064;15.444;2023-04-01T06:54:55;0.20;;;0.20;;
22841;SDS011;11587;47.064;15.444;2023-04-01T06:57:34;0.20;;;0.20;;
22841;SDS011;11587;47.064;15.444;2023-04-01T07:00:03;0.20;;;0.20;;
22841;SDS011;11587;47.064;15.444;2023-04-01T07:04:55;0.20;;;0.20;;
22841;SDS011;11587;47.064;15.444;2023-04-01T07:07:27;0.20;;;0.20;;
22841;SDS011;11587;47.064;15.444;2023-04-01T07:09:55;0.20;;;0.20;;
22841;SDS011;11587;47.064;15.444;2023-04-01T07:14:56;0.20;;;0.20;;
22841;SDS011;11587;47.064;15.444;2023-04-01T07:17:25;0.20;;;0.20;;
22841;SDS011;11587;47.064;15.444;2023-04-01T07:19:56;0.20;;;0.20;;
22841;SDS011;11587;47.064;15.444;2023-04-01T07:22:29;0.20;;;0.20;;
22841;SDS011;11587;47.064;15.444;2023-04-01T07:27:23;0.20;;;0.20;;
22841;SDS011;11587;47.064;15.444;2023-04-01T07:29:49;0.20;;;0.20;;
22841;SDS011;11587;47.064;15.444;2023-04-01T07:37:30;0.20;;;0.20;;
22841;SDS011;11587;47.064;15.444;2023-04-01T07:47:45;0.20;;;0.20;;
22841;SDS011;11587;47.064;15.444;2023-04-01T07:55:18;0.20;;;0.20;;
22841;SDS011;11587;47.064;15.444;2023-04-01T07:57:51;0.20;;;0.20;;
22841;SDS011;11587;47.064;15.444;2023-04-01T08:00:23;0.20;;;0.20;;
22841;SDS011;11587;47.064;15.444;2023-04-01T08:02:54;0.20;;;0.20;;
22841;SDS011;11587;47.064;15.444;2023-04-01T08:05:28;0.20;;;0.20;;
22841;SDS011;11587;47.064;15.444;2023-04-01T08:07:59;0.20;;;0.20;;
22841;SDS011;11587;47.064;15.444;2023-04-01T08:18:44;0.25;;;0.25;;
22841;SDS011;11587;47.064;15.444;2023-04-01T08:21:23;0.20;;;0.20;;
22841;SDS011;11587;47.064;15.444;2023-04-01T08:23:57;0.20;;;0.20;;
22841;SDS011;11587;47.064;15.444;2023-04-01T08:26:41;0.20;;;0.20;;
22841;SDS011;11587;47.064;15.444;2023-04-01T08:29:11;0.20;;;0.20;;
22841;SDS011;11587;47.064;15.444;2023-04-01T08:31:45;0.20;;;0.20;;
22841;SDS011;11587;47.064;15.444;2023-04-01T08:34:16;0.20;;;0.20;;
22841;SDS011;11587;47.064;15.444;2023-04-01T08:36:45;0.20;;;0.20;;
22841;SDS011;11587;47.064;15.444;2023-04-01T08:39:15;0.20;;;0.20;;
22841;SDS011;11587;47.064;15.444;2023-04-01T08:44:33;0.20;;;0.20;;
22841;SDS011;11587;47.064;15.444;2023-04-01T08:47:13;0.10;;;0.10;;
22841;SDS011;11587;47.064;15.444;2023-04-01T08:52:34;0.10;;;0.10;;
22841;SDS011;11587;47.064;15.444;2023-04-01T09:12:45;0.10;;;0.10;;
22841;SDS011;11587;47.064;15.444;2023-04-01T09:20:45;0.10;;;0.10;;
22841;SDS011;11587;47.064;15.444;2023-04-01T09:44:48;0.10;;;0.10;;
22841;SDS011;11587;47.064;15.444;2023-04-01T09:47:39;0.10;;;0.10;;
22841;SDS011;11587;47.064;15.444;2023-04-01T09:50:14;0.10;;;0.10;;
22841;SDS011;11587;47.064;15.444;2023-04-01T09:55:27;0.10;;;0.10;;
22841;SDS011;11587;47.064;15.444;2023-04-01T10:00:47;0.10;;;0.10;;
22841;SDS011;11587;47.064;15.444;2023-04-01T10:18:51;0.10;;;0.10;;
22841;SDS011;11587;47.064;15.444;2023-04-01T10:21:29;0.20;;;0.20;;
22841;SDS011;11587;47.064;15.444;2023-04-01T10:29:24;0.10;;;0.10;;
22841;SDS011;11587;47.064;15.444;2023-04-01T10:34:52;0.17;;;0.17;;
22841;SDS011;11587;47.064;15.444;2023-04-01T10:37:16;0.20;;;0.20;;
22841;SDS011;11587;47.064;15.444;2023-04-01T10:45:15;0.10;;;0.10;;
22841;SDS011;11587;47.064;15.444;2023-04-01T10:50:41;0.10;;;0.10;;
22841;SDS011;11587;47.064;15.444;2023-04-01T11:22:32;0.10;;;0.10;;
22841;SDS011;11587;47.064;15.444;2023-04-01T11:27:35;0.10;;;0.10;;
22841;SDS011;11587;47.064;15.444;2023-04-01T11:30:14;0.10;;;0.10;;
22841;SDS011;11587;47.064;15.444;2023-04-01T11:32:43;0.10;;;0.10;;
22841;SDS011;11587;47.064;15.444;2023-04-01T11:47:57;0.10;;;0.10;;
22841;SDS011;11587;47.064;15.444;2023-04-01T11:55:23;0.10;;;0.10;;
22841;SDS011;11587;47.064;15.444;2023-04-01T12:12:59;0.10;;;0.10;;
22841;SDS011;11587;47.064;15.444;2023-04-01T12:26:33;0.10;;;0.10;;
22841;SDS011;11587;47.064;15.444;2023-04-01T12:34:19;0.10;;;0.10;;
22841;SDS011;11587;47.064;15.444;2023-04-01T12:55:26;0.10;;;0.10;;
22841;SDS011;11587;47.064;15.444;2023-04-01T13:18:44;0.20;;;0.20;;
22841;SDS011;11587;47.064;15.444;2023-04-01T13:26:49;0.20;;;0.20;;
22841;SDS011;11587;47.064;15.444;2023-04-01T13:29:26;0.10;;;0.10;;
22841;SDS011;11587;47.064;15.444;2023-04-01T13:37:47;0.10;;;0.10;;
22841;SDS011;11587;47.064;15.444;2023-04-01T13:42:49;0.10;;;0.10;;
22841;SDS011;11587;47.064;15.444;2023-04-01T13:45:20;0.10;;;0.10;;
22841;SDS011;11587;47.064;15.444;2023-04-01T14:03:26;0.00;;;0.00;;
22841;SDS011;11587;47.064;15.444;2023-04-01T14:12:04;0.00;;;0.00;;
22841;SDS011;11587;47.064;15.444;2023-04-01T14:17:09;0.00;;;0.00;;
22841;SDS011;11587;47.064;15.444;2023-04-01T14:24:52;0.00;;;0.00;;
22841;SDS011;11587;47.064;15.444;2023-04-01T14:50:48;0.00;;;0.00;;
22841;SDS011;11587;47.064;15.444;2023-04-01T14:53:26;0.00;;;0.00;;
22841;SDS011;11587;47.064;15.444;2023-04-01T14:55:54;0.00;;;0.00;;
22841;SDS011;11587;47.064;15.444;2023-04-01T14:58:21;0.00;;;0.00;;
22841;SDS011;11587;47.064;15.444;2023-04-01T15:08:30;0.00;;;0.00;;
22841;SDS011;11587;47.064;15.444;2023-04-01T15:13:37;0.10;;;0.10;;
22841;SDS011;11587;47.064;15.444;2023-04-01T15:24:24;0.00;;;0.00;;
22841;SDS011;11587;47.064;15.444;2023-04-01T15:27:05;0.00;;;0.00;;
22841;SDS011;11587;47.064;15.444;2023-04-01T15:32:07;0.10;;;0.10;;
22841;SDS011;11587;47.064;15.444;2023-04-01T15:39:48;0.10;;;0.10;;
22841;SDS011;11587;47.064;15.444;2023-04-01T15:42:26;0.05;;;0.05;;
22841;SDS011;11587;47.064;15.444;2023-04-01T15:57:38;0.10;;;0.10;;
22841;SDS011;11587;47.064;15.444;2023-04-01T16:07:43;0.10;;;0.10;;
22841;SDS011;11587;47.064;15.444;2023-04-01T16:15:39;0.10;;;0.10;;
22841;SDS011;11587;47.064;15.444;2023-04-01T16:18:17;0.10;;;0.10;;
22841;SDS011;11587;47.064;15.444;2023-04-01T16:31:27;0.10;;;0.10;;
22841;SDS011;11587;47.064;15.444;2023-04-01T16:33:56;0.10;;;0.10;;
22841;SDS011;11587;47.064;15.444;2023-04-01T16:36:33;0.10;;;0.10;;
22841;SDS011;11587;47.064;15.444;2023-04-01T16:44:30;0.10;;;0.10;;
22841;SDS011;11587;47.064;15.444;2023-04-01T16:46:58;0.10;;;0.10;;
22841;SDS011;11587;47.064;15.444;2023-04-01T16:51:57;0.10;;;0.10;;
22841;SDS011;11587;47.064;15.444;2023-04-01T16:59:40;0.10;;;0.10;;
22841;SDS011;11587;47.064;15.444;2023-04-01T17:07:05;0.10;;;0.10;;
22841;SDS011;11587;47.064;15.444;2023-04-01T17:14:45;0.10;;;0.10;;
22841;SDS011;11587;47.064;15.444;2023-04-01T17:17:18;0.10;;;0.10;;
22841;SDS011;11587;47.064;15.444;2023-04-01T17:19:49;0.10;;;0.10;;
22841;SDS011;11587;47.064;15.444;2023-04-01T17:22:37;0.10;;;0.10;;
22841;SDS011;11587;47.064;15.444;2023-04-01T17:25:09;0.10;;;0.10;;
22841;SDS011;11587;47.064;15.444;2023-04-01T17:27:51;0.10;;;0.10;;
22841;SDS011;11587;47.064;15.444;2023-04-01T17:30:42;0.10;;;0.10;;
22841;SDS011;11587;47.064;15.444;2023-04-01T17:38:28;0.10;;;0.10;;
22841;SDS011;11587;47.064;15.444;2023-04-01T17:43:48;0.10;;;0.10;;
22841;SDS011;11587;47.064;15.444;2023-04-01T17:46:36;0.10;;;0.10;;
22841;SDS011;11587;47.064;15.444;2023-04-01T17:51:35;0.10;;;0.10;;
22841;SDS011;11587;47.064;15.444;2023-04-01T17:54:11;0.10;;;0.10;;
22841;SDS011;11587;47.064;15.444;2023-04-01T17:56:45;0.10;;;0.10;;
22841;SDS011;11587;47.064;15.444;2023-04-01T17:59:26;0.10;;;0.10;;
22841;SDS011;11587;47.064;15.444;2023-04-01T18:02:11;0.10;;;0.10;;
22841;SDS011;11587;47.064;15.444;2023-04-01T18:14:49;0.20;;;0.20;;
22841;SDS011;11587;47.064;15.444;2023-04-01T18:17:31;0.20;;;0.20;;
22841;SDS011;11587;47.064;15.444;2023-04-01T18:22:47;0.20;;;0.20;;
22841;SDS011;11587;47.064;15.444;2023-04-01T18:27:47;0.20;;;0.20;;
22841;SDS011;11587;47.064;15.444;2023-04-01T18:30:17;0.20;;;0.20;;
22841;SDS011;11587;47.064;15.444;2023-04-01T18:32:47;0.20;;;0.20;;
22841;SDS011;11587;47.064;15.444;2023-04-01T18:37:45;0.20;;;0.20;;
22841;SDS011;11587;47.064;15.444;2023-04-01T18:45:29;0.20;;;0.20;;
22841;SDS011;11587;47.064;15.444;2023-04-01T18:55:30;0.20;;;0.20;;
22841;SDS011;11587;47.064;15.444;2023-04-01T19:00:47;0.20;;;0.20;;
22841;SDS011;11587;47.064;15.444;2023-04-01T19:03:20;0.20;;;0.20;;
22841;SDS011;11587;47.064;15.444;2023-04-01T19:05:48;0.20;;;0.20;;
22841;SDS011;11587;47.064;15.444;2023-04-01T19:08:29;0.20;;;0.20;;
22841;SDS011;11587;47.064;15.444;2023-04-01T19:21:01;0.10;;;0.10;;
22841;SDS011;11587;47.064;15.444;2023-04-01T19:23:39;0.20;;;0.20;;
22841;SDS011;11587;47.064;15.444;2023-04-01T19:26:16;0.20;;;0.20;;
22841;SDS011;11587;47.064;15.444;2023-04-01T19:28:51;0.10;;;0.10;;
22841;SDS011;11587;47.064;15.444;2023-04-01T19:36:45;0.20;;;0.20;;
22841;SDS011;11587;47.064;15.444;2023-04-01T19:41:46;0.10;;;0.10;;
22841;SDS011;11587;47.064;15.444;2023-04-01T19:47:09;0.10;;;0.10;;
22841;SDS011;11587;47.064;15.444;2023-04-01T19:52:17;0.10;;;0.10;;
22841;SDS011;11587;47.064;15.444;2023-04-01T19:54:54;0.10;;;0.10;;
22841;SDS011;11587;47.064;15.444;2023-04-01T19:59:56;0.20;;;0.20;;
22841;SDS011;11587;47.064;15.444;2023-04-01T20:08:02;0.20;;;0.20;;
22841;SDS011;11587;47.064;15.444;2023-04-01T20:10:44;0.20;;;0.20;;
22841;SDS011;11587;47.064;15.444;2023-04-01T20:18:52;0.20;;;0.20;;
22841;SDS011;11587;47.064;15.444;2023-04-01T20:21:41;0.20;;;0.20;;
22841;SDS011;11587;47.064;15.444;2023-04-01T20:24:17;0.20;;;0.20;;
22841;SDS011;11587;47.064;15.444;2023-04-01T20:26:50;0.20;;;0.20;;
22841;SDS011;11587;47.064;15.444;2023-04-01T20:42:40;0.20;;;0.20;;
22841;SDS011;11587;47.064;15.444;2023-04-01T20:52:41;0.10;;;0.10;;
22841;SDS011;11587;47.064;15.444;2023-04-01T20:58:03;0.20;;;0.20;;
22841;SDS011;11587;47.064;15.444;2023-04-01T21:00:39;0.20;;;0.20;;
22841;SDS011;11587;47.064;15.444;2023-04-01T21:05:55;0.30;;;0.30;;
22841;SDS011;11587;47.064;15.444;2023-04-01T21:19:03;0.28;;;0.28;;
22841;SDS011;11587;47.064;15.444;2023-04-01T21:24:59;0.30;;;0.30;;
22841;SDS011;11587;47.064;15.444;2023-04-01T21:30:04;0.20;;;0.20;;
22841;SDS011;11587;47.064;15.444;2023-04-01T21:38:03;0.10;;;0.10;;
22841;SDS011;11587;47.064;15.444;2023-04-01T21:41:06;0.20;;;0.20;;
22841;SDS011;11587;47.064;15.444;2023-04-01T21:43:51;0.20;;;0.20;;
22841;SDS011;11587;47.064;15.444;2023-04-01T21:49:04;0.20;;;0.20;;
22841;SDS011;11587;47.064;15.444;2023-04-01T21:59:25;0.30;;;0.30;;
22841;SDS011;11587;47.064;15.444;2023-04-01T22:07:25;0.30;;;0.30;;
22841;SDS011;11587;47.064;15.444;2023-04-01T22:17:46;0.20;;;0.20;;
22841;SDS011;11587;47.064;15.444;2023-04-01T22:22:55;0.10;;;0.10;;
22841;SDS011;11587;47.064;15.444;2023-04-01T22:28:22;0.20;;;0.20;;
22841;SDS011;11587;47.064;15.444;2023-04-01T22:31:14;0.20;;;0.20;;
22841;SDS011;11587;47.064;15.444;2023-04-01T22:33:35;0.20;;;0.20;;
22841;SDS011;11587;47.064;15.444;2023-04-01T22:43:56;0.20;;;0.20;;
22841;SDS011;11587;47.064;15.444;2023-04-01T22:49:15;0.20;;;0.20;;
22841;SDS011;11587;47.064;15.444;2023-04-01T22:54:40;0.10;;;0.10;;
22841;SDS011;11587;47.064;15.444;2023-04-01T22:59:37;0.10;;;0.10;;
22841;SDS011;11587;47.064;15.444;2023-04-01T23:02:10;0.10;;;0.10;;
22841;SDS011;11587;47.064;15.444;2023-04-01T23:04:39;0.17;;;0.17;;
22841;SDS011;11587;47.064;15.444;2023-04-01T23:09:53;0.20;;;0.20;;
22841;SDS011;11587;47.064;15.444;2023-04-01T23:12:21;0.10;;;0.10;;
22841;SDS011;11587;47.064;15.444;2023-04-01T23:14:48;0.20;;;0.20;;
22841;SDS011;11587;47.064;15.444;2023-04-01T23:22:43;0.20;;;0.20;;
22841;SDS011;11587;47.064;15.444;2023-04-01T23:27:45;0.20;;;0.20;;
22841;SDS011;11587;47.064;15.444;2023-04-01T23:33:09;0.20;;;0.20;;
22841;SDS011;11587;47.064;15.444;2023-04-01T23:35:45;0.30;;;0.30;;
22841;SDS011;11587;47.064;15.444;2023-04-01T23:38:12;0.30;;;0.30;;
22841;SDS011;11587;47.064;15.444;2023-04-01T23:40:38;0.30;;;0.30;;
22841;SDS011;11587;47.064;15.444;2023-04-01T23:43:12;0.30;;;0.30;;
22841;SDS011;11587;47.064;15.444;2023-04-01T23:45:38;0.30;;;0.30;;
22841;SDS011;11587;47.064;15.444;2023-04-01T23:48:09;0.30;;;0.30;;
22841;SDS011;11587;47.064;15.444;2023-04-01T23:50:36;0.30;;;0.30;;
22841;SDS011;11587;47.064;15.444;2023-04-01T23:53:16;0.30;;;0.30;;
22841;SDS011;11587;47.064;15.444;2023-04-01T23:55:43;0.20;;;0.20;;
